Time;durP1;ratioP1;P1;durP2;ratioP2;P2;SDS_P1;SDS_P2;PMS_P1;PMS_P2;Temp;Humidity;BMP_temperature;BMP_pressure;BME280_temperature;BME280_humidity;BME280_pressure;Samples;Min_cycle;Max_cycle;Signal;HPM_P1;HPM_P2
2024/03/08 00:00:19;;;;;;;29.90;18.65;;;3.70;99.90;;;;;;476995;249;28160;-74
2024/03/08 00:02:20;;;;;;;30.80;19.05;;;3.60;99.90;;;;;;468093;251;27954;-73
2024/03/08 00:04:22;;;;;;;33.15;19.45;;;3.60;99.90;;;;;;476970;249;27434;-72
2024/03/08 00:06:24;;;;;;;34.90;20.15;;;3.50;99.90;;;;;;468118;251;27431;-72
2024/03/08 00:08:24;;;;;;;32.30;19.25;;;3.60;99.90;;;;;;476891;249;27442;-72
2024/03/08 00:10:27;;;;;;;32.47;19.87;;;3.50;99.90;;;;;;468121;251;27473;-73
2024/03/08 00:12:27;;;;;;;33.75;19.85;;;3.60;99.90;;;;;;476920;249;27442;-72
2024/03/08 00:14:28;;;;;;;30.88;19.27;;;3.60;99.90;;;;;;468063;251;27968;-72
2024/03/08 00:16:29;;;;;;;30.90;18.87;;;3.50;99.90;;;;;;476968;249;28768;-72
2024/03/08 00:18:30;;;;;;;33.38;20.98;;;3.50;99.90;;;;;;468051;251;27454;-73
2024/03/08 00:20:32;;;;;;;28.38;17.65;;;3.60;99.90;;;;;;476992;249;27541;-73
2024/03/08 00:22:33;;;;;;;33.10;20.40;;;3.60;99.90;;;;;;468080;251;27426;-72
2024/03/08 00:24:34;;;;;;;35.83;20.42;;;3.50;99.90;;;;;;476954;249;27533;-72
2024/03/08 00:26:35;;;;;;;31.98;20.70;;;3.50;99.90;;;;;;468132;251;27480;-74
2024/03/08 00:28:37;;;;;;;34.28;20.52;;;3.50;99.90;;;;;;476951;249;27458;-73
2024/03/08 00:30:38;;;;;;;37.85;21.25;;;3.50;99.90;;;;;;468083;251;28045;-72
2024/03/08 00:32:39;;;;;;;35.22;21.37;;;3.40;99.90;;;;;;476937;249;27864;-72
2024/03/08 00:34:41;;;;;;;36.20;20.27;;;3.40;99.90;;;;;;468087;251;27450;-72
2024/03/08 00:36:42;;;;;;;33.20;20.60;;;3.40;99.90;;;;;;477001;249;27532;-74
2024/03/08 00:38:43;;;;;;;35.13;20.62;;;3.40;99.90;;;;;;468032;251;27548;-72
2024/03/08 00:40:44;;;;;;;33.97;20.30;;;3.40;99.90;;;;;;476947;249;27470;-72
2024/03/08 00:42:46;;;;;;;30.77;20.67;;;3.40;99.90;;;;;;468061;251;27418;-72
2024/03/08 00:44:48;;;;;;;34.00;20.37;;;3.40;99.90;;;;;;476983;249;27983;-73
2024/03/08 00:46:48;;;;;;;35.35;20.62;;;3.40;99.90;;;;;;468084;251;28112;-72
2024/03/08 00:48:49;;;;;;;35.67;21.02;;;3.40;99.90;;;;;;476912;249;28955;-72
2024/03/08 00:50:51;;;;;;;39.15;22.35;;;3.30;99.90;;;;;;468068;251;27476;-73
2024/03/08 00:52:52;;;;;;;33.78;20.45;;;3.30;99.90;;;;;;477002;249;27446;-73
2024/03/08 00:54:53;;;;;;;29.95;20.88;;;3.30;99.90;;;;;;468091;251;27518;-72
2024/03/08 00:56:55;;;;;;;32.25;20.35;;;3.30;99.90;;;;;;476839;249;27449;-72
2024/03/08 00:58:56;;;;;;;31.90;20.00;;;3.20;99.90;;;;;;468010;251;27554;-72
2024/03/08 01:00:57;;;;;;;35.15;20.90;;;3.20;99.90;;;;;;476936;249;28006;-73
2024/03/08 01:02:59;;;;;;;34.85;20.65;;;3.20;99.90;;;;;;468101;251;28037;-73
2024/03/08 01:04:59;;;;;;;32.83;20.67;;;3.20;99.90;;;;;;476937;249;27403;-72
2024/03/08 01:07:01;;;;;;;34.20;20.45;;;3.20;99.90;;;;;;468101;251;27484;-72
2024/03/08 01:09:02;;;;;;;35.42;20.65;;;3.20;99.90;;;;;;476960;249;27498;-73
2024/03/08 01:11:04;;;;;;;37.35;21.80;;;3.20;99.90;;;;;;468172;251;27543;-73
2024/03/08 01:13:05;;;;;;;38.53;20.12;;;3.10;99.90;;;;;;476974;249;27458;-73
2024/03/08 01:15:06;;;;;;;34.63;21.42;;;3.10;99.90;;;;;;468132;251;27427;-73
2024/03/08 01:17:07;;;;;;;33.53;20.35;;;3.10;99.90;;;;;;476978;249;28007;-73
2024/03/08 01:19:08;;;;;;;38.65;22.15;;;3.10;99.90;;;;;;468089;251;28013;-74
2024/03/08 01:21:09;;;;;;;40.12;22.70;;;3.10;99.90;;;;;;476999;249;27415;-72
2024/03/08 01:23:11;;;;;;;35.35;22.27;;;3.00;99.90;;;;;;468124;251;27514;-73
2024/03/08 01:25:12;;;;;;;35.97;21.62;;;3.10;99.90;;;;;;476987;249;27466;-73
2024/03/08 01:27:13;;;;;;;36.00;21.37;;;3.10;99.90;;;;;;468145;251;27496;-73
2024/03/08 01:29:14;;;;;;;33.60;21.75;;;3.00;99.90;;;;;;477000;249;27450;-73
2024/03/08 01:31:16;;;;;;;37.80;22.10;;;3.00;99.90;;;;;;468169;251;27908;-73
2024/03/08 01:33:17;;;;;;;35.53;21.35;;;3.00;99.90;;;;;;477007;249;27931;-73
2024/03/08 01:35:18;;;;;;;36.58;21.08;;;2.90;99.90;;;;;;468119;251;28451;-73
2024/03/08 01:37:19;;;;;;;34.85;21.00;;;2.90;99.90;;;;;;477003;249;27466;-74
2024/03/08 01:39:21;;;;;;;33.80;21.05;;;2.90;99.90;;;;;;468115;251;27554;-74
2024/03/08 01:41:22;;;;;;;36.58;21.95;;;2.80;99.90;;;;;;476974;249;27410;-73
2024/03/08 01:43:23;;;;;;;38.83;22.17;;;2.80;99.90;;;;;;468076;251;27462;-73
2024/03/08 01:45:25;;;;;;;40.80;22.30;;;2.80;99.90;;;;;;476977;249;27474;-74
2024/03/08 01:47:26;;;;;;;32.33;20.35;;;2.80;99.90;;;;;;468061;251;27978;-73
2024/03/08 01:49:27;;;;;;;33.72;20.73;;;2.80;99.90;;;;;;476969;249;28093;-73
2024/03/08 01:51:28;;;;;;;34.63;20.67;;;2.80;99.90;;;;;;468033;251;27413;-73
2024/03/08 01:53:30;;;;;;;33.53;20.83;;;2.80;99.90;;;;;;476969;249;27510;-73
2024/03/08 01:55:31;;;;;;;34.83;20.83;;;2.80;99.90;;;;;;468120;251;27453;-74
2024/03/08 01:57:33;;;;;;;38.83;21.80;;;2.70;99.90;;;;;;476924;249;27498;-73
2024/03/08 01:59:33;;;;;;;35.72;21.90;;;2.70;99.90;;;;;;468018;254;27466;-74
2024/03/08 02:01:35;;;;;;;36.78;21.27;;;2.70;99.90;;;;;;476930;249;27414;-73
2024/03/08 02:03:36;;;;;;;37.42;22.25;;;2.70;99.90;;;;;;468108;251;27915;-73
2024/03/08 02:05:38;;;;;;;34.85;21.15;;;2.70;99.90;;;;;;476976;249;29100;-74
2024/03/08 02:07:38;;;;;;;31.17;20.20;;;2.70;99.90;;;;;;468040;251;27419;-73
2024/03/08 02:09:40;;;;;;;36.45;21.35;;;2.70;99.90;;;;;;476927;249;27533;-73
2024/03/08 02:11:41;;;;;;;35.60;21.10;;;2.60;99.90;;;;;;468108;251;27895;-73
2024/03/08 02:13:42;;;;;;;43.83;20.60;;;2.60;99.90;;;;;;476982;249;27498;-73
2024/03/08 02:15:43;;;;;;;32.65;20.50;;;2.60;99.90;;;;;;467986;254;27481;-73
2024/03/08 02:17:45;;;;;;;43.28;22.90;;;2.60;99.90;;;;;;476932;249;27854;-73
2024/03/08 02:19:46;;;;;;;38.15;22.65;;;2.50;99.90;;;;;;468066;251;28039;-73
2024/03/08 02:21:47;;;;;;;37.22;22.73;;;2.50;99.90;;;;;;476987;249;27480;-75
2024/03/08 02:23:48;;;;;;;35.97;21.80;;;2.50;99.90;;;;;;468074;251;27502;-73
2024/03/08 02:25:50;;;;;;;39.03;21.75;;;2.50;99.90;;;;;;476936;249;27449;-73
2024/03/08 02:27:51;;;;;;;36.08;21.67;;;2.50;99.90;;;;;;468025;251;27405;-73
2024/03/08 02:29:52;;;;;;;34.70;19.87;;;2.50;99.90;;;;;;476964;249;27420;-72
2024/03/08 02:31:55;;;;;;;34.72;19.90;;;2.50;99.90;;;;;;468097;251;27497;-73
2024/03/08 02:33:55;;;;;;;43.00;22.02;;;2.40;99.90;;;;;;476870;249;27860;-73
2024/03/08 02:35:56;;;;;;;38.33;21.30;;;2.40;99.90;;;;;;468035;254;27964;-73
2024/03/08 02:37:58;;;;;;;38.25;21.05;;;2.30;99.90;;;;;;476953;249;27561;-74
2024/03/08 02:39:58;;;;;;;31.77;20.35;;;2.30;99.90;;;;;;468085;251;27425;-73
2024/03/08 02:42:00;;;;;;;32.90;20.60;;;2.30;99.90;;;;;;476946;249;27528;-74
2024/03/08 02:44:01;;;;;;;38.85;22.05;;;2.30;99.90;;;;;;468058;251;27430;-72
2024/03/08 02:46:02;;;;;;;36.38;21.42;;;2.30;99.90;;;;;;476951;249;27517;-73
2024/03/08 02:48:03;;;;;;;37.88;19.95;;;2.30;99.90;;;;;;468069;251;27462;-74
2024/03/08 02:50:07;;;;;;;36.45;22.33;;;2.30;99.90;;;;;;476936;249;27871;-73
2024/03/08 02:52:07;;;;;;;30.55;19.65;;;2.30;99.90;;;;;;467961;254;27965;-73
2024/03/08 02:54:08;;;;;;;37.00;21.33;;;2.20;99.90;;;;;;476906;249;27526;-73
2024/03/08 02:56:12;;;;;;;38.78;22.48;;;2.20;99.90;;;;;;468080;251;27423;-73
2024/03/08 02:58:14;;;;;;;40.17;21.05;;;2.20;99.90;;;;;;476692;249;27474;-74
2024/03/08 03:00:15;;;;;;;36.78;21.08;;;2.20;99.90;;;;;;467943;254;29044;-73
2024/03/08 03:02:16;;;;;;;36.38;21.77;;;2.20;99.90;;;;;;476841;249;27415;-73
2024/03/08 03:04:16;;;;;;;34.15;20.75;;;2.20;99.90;;;;;;467992;251;27489;-73
2024/03/08 03:06:20;;;;;;;36.58;20.98;;;2.10;99.90;;;;;;476813;249;27498;-74
2024/03/08 03:08:20;;;;;;;36.78;21.17;;;2.10;99.90;;;;;;467854;254;27583;-73
2024/03/08 03:10:21;;;;;;;38.20;22.10;;;2.10;99.90;;;;;;476900;249;27473;-73
2024/03/08 03:12:22;;;;;;;35.08;21.85;;;2.10;99.90;;;;;;468026;251;28322;-73
2024/03/08 03:14:23;;;;;;;34.55;21.92;;;2.10;99.90;;;;;;476912;249;28009;-73
2024/03/08 03:16:24;;;;;;;37.08;22.27;;;2.10;99.90;;;;;;468072;251;27966;-73
2024/03/08 03:18:27;;;;;;;31.67;20.23;;;2.10;99.90;;;;;;476882;249;27397;-73
2024/03/08 03:20:32;;;;;;;35.28;20.85;;;2.10;99.90;;;;;;467957;254;27458;-73
2024/03/08 03:22:30;;;;;;;36.95;22.35;;;2.00;99.90;;;;;;476696;249;27772;-73
2024/03/08 03:24:29;;;;;;;34.10;19.85;;;2.00;99.90;;;;;;467940;254;27431;-73
2024/03/08 03:26:31;;;;;;;37.70;22.08;;;2.00;99.90;;;;;;476960;249;27433;-74
2024/03/08 03:28:33;;;;;;;39.10;21.90;;;1.90;99.90;;;;;;467885;254;27413;-73
2024/03/08 03:30:33;;;;;;;36.38;22.08;;;1.90;99.90;;;;;;476928;249;27476;-73
2024/03/08 03:32:36;;;;;;;39.17;21.30;;;1.90;99.90;;;;;;468098;251;27962;-73
2024/03/08 03:34:38;;;;;;;34.63;20.08;;;1.90;99.90;;;;;;476823;249;27918;-73
2024/03/08 03:36:38;;;;;;;38.88;22.37;;;1.80;99.90;;;;;;467814;254;27474;-73
2024/03/08 03:38:38;;;;;;;36.78;21.10;;;1.80;99.90;;;;;;476873;249;27446;-72
2024/03/08 03:40:45;;;;;;;36.70;21.25;;;1.80;99.90;;;;;;468089;251;27474;-73
2024/03/08 03:42:40;;;;;;;32.97;20.25;;;1.80;99.90;;;;;;468097;254;27620;-73
2024/03/08 03:44:43;;;;;;;40.10;21.92;;;1.70;99.90;;;;;;476918;249;27397;-73
2024/03/08 03:46:46;;;;;;;35.40;21.40;;;1.70;99.90;;;;;;468037;254;27922;-73
2024/03/08 03:48:47;;;;;;;38.03;22.70;;;1.70;99.90;;;;;;476943;249;27453;-73
2024/03/08 03:50:50;;;;;;;34.83;21.10;;;1.60;99.90;;;;;;468053;254;27458;-74
2024/03/08 03:52:50;;;;;;;42.53;22.62;;;1.60;99.90;;;;;;476915;249;27981;-73
2024/03/08 03:54:51;;;;;;;35.83;20.90;;;1.60;99.90;;;;;;468075;251;29144;-73
2024/03/08 03:56:53;;;;;;;41.55;22.90;;;1.60;99.90;;;;;;476986;249;27529;-73
2024/03/08 03:58:53;;;;;;;35.17;21.40;;;1.50;99.90;;;;;;468094;251;27442;-73
2024/03/08 04:00:55;;;;;;;39.92;23.73;;;1.50;99.90;;;;;;476980;249;27525;-74
2024/03/08 04:02:58;;;;;;;38.20;22.10;;;1.50;99.90;;;;;;468089;251;27425;-72
2024/03/08 04:04:58;;;;;;;35.67;21.40;;;1.50;99.90;;;;;;476817;249;27442;-73
2024/03/08 04:06:59;;;;;;;37.50;22.50;;;1.40;99.90;;;;;;468072;254;28053;-74
2024/03/08 04:09:00;;;;;;;38.92;23.40;;;1.40;99.90;;;;;;476835;249;27867;-73
2024/03/08 04:11:01;;;;;;;37.90;22.37;;;1.40;99.90;;;;;;468095;251;27952;-72
2024/03/08 04:13:03;;;;;;;37.30;21.45;;;1.40;99.90;;;;;;476976;249;27492;-72
2024/03/08 04:15:04;;;;;;;36.70;21.60;;;1.40;99.90;;;;;;467877;254;27447;-73
2024/03/08 04:17:05;;;;;;;37.97;21.92;;;1.30;99.90;;;;;;476964;249;27456;-74
2024/03/08 04:19:06;;;;;;;38.67;22.98;;;1.30;99.90;;;;;;468052;254;27423;-73
2024/03/08 04:21:07;;;;;;;37.53;20.95;;;1.30;99.90;;;;;;476960;249;27505;-73
2024/03/08 04:23:08;;;;;;;36.22;20.83;;;1.30;99.90;;;;;;468046;251;28941;-73
2024/03/08 04:25:10;;;;;;;39.92;22.25;;;1.30;99.90;;;;;;476986;249;27859;-72
2024/03/08 04:27:11;;;;;;;37.85;23.02;;;1.30;99.90;;;;;;468088;251;27461;-73
2024/03/08 04:29:14;;;;;;;35.50;21.52;;;1.30;99.90;;;;;;476945;249;27403;-72
2024/03/08 04:31:15;;;;;;;38.22;22.92;;;1.30;99.90;;;;;;467996;254;27471;-73
2024/03/08 04:33:17;;;;;;;39.03;22.20;;;1.20;99.90;;;;;;476918;249;27469;-74
2024/03/08 04:35:16;;;;;;;31.45;20.17;;;1.20;99.90;;;;;;467991;254;27429;-73
2024/03/08 04:37:23;;;;;;;34.90;20.20;;;1.20;99.90;;;;;;476974;249;27466;-73
2024/03/08 04:39:27;;;;;;;34.67;20.90;;;1.20;99.90;;;;;;468091;251;27423;-72
2024/03/08 04:41:26;;;;;;;34.90;21.67;;;1.20;99.90;;;;;;476796;249;27462;-74
2024/03/08 04:43:27;;;;;;;38.55;22.95;;;1.20;99.90;;;;;;468112;251;28447;-72
2024/03/08 04:45:28;;;;;;;35.70;20.48;;;1.20;99.90;;;;;;476991;249;27957;-72
2024/03/08 04:47:30;;;;;;;38.22;21.58;;;1.20;99.90;;;;;;468068;251;27589;-71
2024/03/08 04:49:31;;;;;;;32.95;19.70;;;1.20;99.90;;;;;;476957;249;27402;-72
2024/03/08 04:51:32;;;;;;;35.65;21.20;;;1.20;99.90;;;;;;468151;251;27425;-71
2024/03/08 04:53:34;;;;;;;34.65;20.83;;;1.20;99.90;;;;;;476847;249;27466;-72
2024/03/08 04:55:35;;;;;;;38.00;20.70;;;1.10;99.90;;;;;;468113;251;27418;-72
2024/03/08 04:57:36;;;;;;;37.22;20.35;;;1.10;99.90;;;;;;476797;249;27442;-72
2024/03/08 04:59:37;;;;;;;35.90;20.85;;;1.10;99.90;;;;;;468157;251;28093;-72
2024/03/08 05:01:38;;;;;;;35.20;20.35;;;1.10;99.90;;;;;;477030;249;27945;-72
2024/03/08 05:03:40;;;;;;;38.28;22.90;;;1.10;99.90;;;;;;468139;251;27529;-72
2024/03/08 05:05:41;;;;;;;31.77;20.75;;;1.10;99.90;;;;;;476986;249;27407;-72
2024/03/08 05:07:45;;;;;;;39.25;22.08;;;1.10;99.90;;;;;;468078;251;27485;-72
2024/03/08 05:09:51;;;;;;;33.05;19.73;;;1.10;99.90;;;;;;476881;249;27782;-72
2024/03/08 05:11:45;;;;;;;34.80;20.85;;;1.10;99.90;;;;;;467446;254;27597;-72
2024/03/08 05:13:46;;;;;;;35.15;19.92;;;1.00;99.90;;;;;;476986;249;27477;-72
2024/03/08 05:15:47;;;;;;;34.33;22.23;;;2.60;99.90;;;;;;468087;251;28058;-72
2024/03/08 05:17:48;;;;;;;36.63;21.48;;;1.00;99.90;;;;;;476919;249;27872;-72
2024/03/08 05:19:50;;;;;;;34.13;20.10;;;1.00;99.90;;;;;;468121;251;27489;-72
2024/03/08 05:21:51;;;;;;;33.47;18.87;;;1.00;99.90;;;;;;476972;249;27427;-72
2024/03/08 05:23:52;;;;;;;34.35;20.85;;;1.00;99.90;;;;;;468080;251;27521;-72
2024/03/08 05:25:53;;;;;;;34.72;20.85;;;1.00;99.90;;;;;;476929;249;27549;-71
2024/03/08 05:27:55;;;;;;;35.47;20.23;;;1.00;99.90;;;;;;468078;251;27534;-72
2024/03/08 05:29:56;;;;;;;34.85;20.30;;;0.90;99.90;;;;;;476888;249;27950;-72
2024/03/08 05:31:58;;;;;;;30.73;17.85;;;0.90;99.90;;;;;;468086;251;28115;-71
2024/03/08 05:33:58;;;;;;;34.35;21.52;;;0.90;99.90;;;;;;476925;249;27454;-72
2024/03/08 05:36:00;;;;;;;36.42;22.40;;;0.80;99.90;;;;;;468136;251;27534;-74
2024/03/08 05:38:01;;;;;;;36.80;21.12;;;0.80;99.90;;;;;;476960;249;27407;-72
2024/03/08 05:40:03;;;;;;;35.30;20.65;;;0.90;99.90;;;;;;468097;251;27446;-72
2024/03/08 05:42:04;;;;;;;35.70;20.40;;;0.90;99.90;;;;;;476929;249;27402;-72
2024/03/08 05:44:05;;;;;;;36.80;22.55;;;0.90;99.90;;;;;;468068;251;27482;-72
2024/03/08 05:46:06;;;;;;;31.98;20.27;;;0.90;99.90;;;;;;477014;249;27975;-73
2024/03/08 05:48:07;;;;;;;36.10;20.75;;;0.80;99.90;;;;;;468055;251;27957;-72
2024/03/08 05:50:10;;;;;;;36.25;20.95;;;0.80;99.90;;;;;;476953;249;27438;-72
2024/03/08 05:52:10;;;;;;;33.55;20.95;;;0.80;99.90;;;;;;468019;251;27436;-72
2024/03/08 05:54:11;;;;;;;33.10;19.87;;;0.80;99.90;;;;;;476958;249;27478;-72
2024/03/08 05:56:12;;;;;;;34.65;19.23;;;0.90;99.90;;;;;;468106;251;27588;-72
2024/03/08 05:58:14;;;;;;;31.70;19.35;;;0.80;99.90;;;;;;476950;249;27413;-71
2024/03/08 06:00:15;;;;;;;28.40;18.83;;;0.80;99.90;;;;;;468081;251;27477;-72
2024/03/08 06:02:19;;;;;;;36.30;20.75;;;0.80;99.90;;;;;;476977;249;28137;-74
2024/03/08 06:04:20;;;;;;;35.55;20.33;;;0.90;99.90;;;;;;468094;251;27542;-73
2024/03/08 06:06:21;;;;;;;35.42;21.27;;;0.90;99.90;;;;;;476965;249;27423;-72
2024/03/08 06:08:23;;;;;;;35.35;21.10;;;0.90;99.90;;;;;;468034;251;27539;-72
2024/03/08 06:10:24;;;;;;;39.28;19.75;;;0.90;99.90;;;;;;476927;249;27479;-72
2024/03/08 06:12:28;;;;;;;35.80;20.98;;;0.90;99.90;;;;;;468111;251;28009;-72
2024/03/08 06:14:26;;;;;;;34.05;19.15;;;0.90;99.90;;;;;;476816;249;27906;-72
2024/03/08 06:16:29;;;;;;;33.63;20.62;;;0.90;99.90;;;;;;468059;251;27445;-72
2024/03/08 06:18:29;;;;;;;26.48;16.50;;;0.90;99.90;;;;;;476880;249;27544;-72
2024/03/08 06:20:30;;;;;;;33.83;20.02;;;0.80;99.90;;;;;;468097;251;27514;-72
2024/03/08 06:22:32;;;;;;;34.17;19.58;;;0.90;99.90;;;;;;476995;249;27481;-73
2024/03/08 06:24:36;;;;;;;33.30;20.58;;;1.00;99.90;;;;;;468064;251;27466;-73
2024/03/08 06:26:34;;;;;;;34.08;20.00;;;1.00;99.90;;;;;;476795;249;27931;-72
2024/03/08 06:28:35;;;;;;;38.90;21.60;;;1.00;99.90;;;;;;468010;251;27938;-72
2024/03/08 06:30:37;;;;;;;35.00;20.35;;;1.00;99.90;;;;;;477015;249;28008;-73
2024/03/08 06:32:38;;;;;;;35.97;21.25;;;1.00;99.90;;;;;;468095;251;27469;-72
2024/03/08 06:34:39;;;;;;;32.35;19.70;;;1.10;99.90;;;;;;476954;249;27478;-72
2024/03/08 06:36:40;;;;;;;34.67;20.40;;;1.10;99.90;;;;;;468062;251;27426;-72
2024/03/08 06:38:42;;;;;;;33.53;20.67;;;1.20;99.90;;;;;;476920;249;27504;-71
2024/03/08 06:40:43;;;;;;;40.42;21.70;;;1.20;99.90;;;;;;468021;254;27533;-72
2024/03/08 06:42:45;;;;;;;32.28;19.52;;;1.20;99.90;;;;;;476939;249;27856;-71
2024/03/08 06:44:49;;;;;;;34.47;21.17;;;1.20;99.90;;;;;;468040;251;27930;-72
2024/03/08 06:46:47;;;;;;;36.40;20.67;;;1.20;99.90;;;;;;476794;249;27553;-72
2024/03/08 06:48:49;;;;;;;36.63;21.05;;;1.30;99.90;;;;;;468046;251;27462;-72
2024/03/08 06:50:49;;;;;;;38.90;21.42;;;1.30;99.90;;;;;;476722;249;27545;-72
2024/03/08 06:52:53;;;;;;;39.83;21.45;;;1.30;99.90;;;;;;468024;251;27787;-73
2024/03/08 06:54:52;;;;;;;39.53;21.70;;;1.30;99.90;;;;;;476787;249;27437;-72
2024/03/08 06:56:53;;;;;;;36.75;22.02;;;1.30;99.90;;;;;;468092;251;27445;-73
2024/03/08 06:58:55;;;;;;;38.95;20.40;;;1.30;99.90;;;;;;476864;249;27407;-72
2024/03/08 07:00:58;;;;;;;33.88;20.20;;;1.40;99.90;;;;;;468006;254;27534;-72
2024/03/08 07:03:00;;;;;;;37.33;20.65;;;1.40;99.90;;;;;;476841;249;28844;-72
2024/03/08 07:04:58;;;;;;;35.50;21.75;;;1.40;99.90;;;;;;467671;254;28024;-71
2024/03/08 07:06:59;;;;;;;36.75;20.85;;;1.40;99.90;;;;;;476954;249;27466;-72
2024/03/08 07:09:01;;;;;;;32.70;20.48;;;1.50;99.90;;;;;;467968;251;27497;-72
2024/03/08 07:11:02;;;;;;;31.58;20.30;;;1.50;99.90;;;;;;476923;249;27446;-72
2024/03/08 07:13:03;;;;;;;37.00;21.23;;;1.50;99.90;;;;;;468062;251;27796;-73
2024/03/08 07:15:05;;;;;;;35.38;21.10;;;1.60;99.90;;;;;;476961;249;27383;-71
2024/03/08 07:17:08;;;;;;;35.38;20.58;;;1.50;99.90;;;;;;468059;251;27457;-72
2024/03/08 07:19:07;;;;;;;38.60;21.30;;;1.50;99.90;;;;;;476770;249;27399;-72
2024/03/08 07:21:08;;;;;;;35.75;21.60;;;1.60;99.90;;;;;;468123;251;27486;-72
2024/03/08 07:23:10;;;;;;;36.25;21.77;;;1.70;99.90;;;;;;476466;249;27439;-72
2024/03/08 07:25:19;;;;;;;35.78;19.65;;;1.70;99.90;;;;;;476816;249;27940;-72
2024/03/08 07:27:12;;;;;;;34.40;19.85;;;1.70;99.90;;;;;;467447;254;27961;-72
2024/03/08 07:29:13;;;;;;;39.90;21.40;;;1.70;99.90;;;;;;476956;249;27710;-72
2024/03/08 07:33:19;;;;;;;34.30;19.75;;;1.80;99.90;;;;;;476504;249;27960;-72
2024/03/08 07:35:20;;;;;;;35.53;19.98;;;1.80;99.90;;;;;;476968;249;27434;-72
2024/03/08 07:37:21;;;;;;;31.85;19.20;;;1.80;99.90;;;;;;468016;251;27456;-72
2024/03/08 07:39:23;;;;;;;35.35;20.42;;;1.80;99.90;;;;;;477007;249;27417;-72
2024/03/08 07:41:24;;;;;;;34.08;20.15;;;1.80;99.90;;;;;;468103;251;27509;-73
2024/03/08 07:43:25;;;;;;;34.45;20.80;;;1.90;99.90;;;;;;476965;249;27453;-72
2024/03/08 07:45:26;;;;;;;32.95;20.75;;;2.00;99.90;;;;;;468076;251;27457;-72
2024/03/08 07:47:30;;;;;;;32.60;19.62;;;2.00;99.90;;;;;;476881;249;28006;-73
2024/03/08 07:49:29;;;;;;;34.65;20.12;;;2.10;99.90;;;;;;468057;251;27972;-72
2024/03/08 07:51:30;;;;;;;34.20;20.83;;;2.00;99.90;;;;;;476969;249;27442;-72
2024/03/08 07:53:31;;;;;;;34.10;19.95;;;2.00;99.90;;;;;;468059;251;27502;-72
2024/03/08 07:55:32;;;;;;;33.22;20.25;;;2.10;99.90;;;;;;476985;249;27442;-72
2024/03/08 07:57:34;;;;;;;35.80;20.90;;;2.10;99.90;;;;;;468075;251;27496;-72
2024/03/08 07:59:35;;;;;;;33.70;21.98;;;2.10;99.90;;;;;;476987;249;27494;-72
2024/03/08 08:01:36;;;;;;;35.95;21.30;;;2.10;99.90;;;;;;468079;251;27930;-72
2024/03/08 08:03:38;;;;;;;37.25;21.77;;;2.20;99.90;;;;;;476933;249;28722;-71
2024/03/08 08:05:39;;;;;;;34.45;20.95;;;2.20;99.90;;;;;;468109;251;28032;-72
2024/03/08 08:07:43;;;;;;;34.55;20.98;;;2.20;99.90;;;;;;476937;249;27430;-72
2024/03/08 08:09:42;;;;;;;34.30;20.90;;;2.20;99.90;;;;;;467814;251;27493;-72
2024/03/08 08:11:46;;;;;;;42.10;23.23;;;2.30;99.90;;;;;;476848;249;27561;-72
2024/03/08 08:13:47;;;;;;;56.42;29.50;;;2.30;99.90;;;;;;467983;254;27449;-72
2024/03/08 08:15:48;;;;;;;37.35;22.00;;;2.40;99.90;;;;;;476995;249;27569;-72
2024/03/08 08:17:49;;;;;;;35.13;22.10;;;2.40;99.90;;;;;;468043;251;27538;-71
2024/03/08 08:19:51;;;;;;;42.62;24.35;;;2.40;99.90;;;;;;476839;249;27473;-72
2024/03/08 08:21:52;;;;;;;34.97;21.08;;;2.50;99.90;;;;;;468032;251;28013;-71
2024/03/08 08:23:53;;;;;;;36.13;21.00;;;2.50;99.90;;;;;;476761;249;28965;-72
2024/03/08 08:25:55;;;;;;;37.13;21.80;;;2.50;99.90;;;;;;468102;251;27473;-73
2024/03/08 08:27:56;;;;;;;38.80;21.80;;;2.50;99.90;;;;;;476951;249;27405;-72
2024/03/08 08:29:57;;;;;;;33.33;20.73;;;2.60;99.90;;;;;;468091;251;27519;-72
2024/03/08 08:31:59;;;;;;;35.15;21.50;;;2.60;99.90;;;;;;477028;249;27808;-73
2024/03/08 08:33:59;;;;;;;31.80;19.83;;;2.70;99.90;;;;;;468079;254;27409;-72
2024/03/08 08:36:01;;;;;;;39.05;20.80;;;2.70;99.90;;;;;;476976;249;27454;-72
2024/03/08 08:38:03;;;;;;;32.90;22.02;;;2.70;99.90;;;;;;468066;251;27958;-72
2024/03/08 08:40:08;;;;;;;30.77;19.77;;;2.70;99.90;;;;;;476958;249;28989;-72
2024/03/08 08:42:04;;;;;;;33.60;20.48;;;2.70;99.90;;;;;;467922;254;27503;-72
2024/03/08 08:44:08;;;;;;;34.50;21.62;;;2.80;99.90;;;;;;476980;249;27564;-71
2024/03/08 08:46:07;;;;;;;34.05;21.80;;;2.90;99.90;;;;;;467864;254;27882;-72
2024/03/08 08:48:10;;;;;;;52.90;29.65;;;3.00;99.90;;;;;;476960;249;27454;-71
2024/03/08 08:50:11;;;;;;;38.95;24.37;;;3.10;99.90;;;;;;467977;251;27422;-72
2024/03/08 08:52:11;;;;;;;35.00;21.08;;;3.10;99.90;;;;;;476927;249;28030;-72
2024/03/08 08:54:16;;;;;;;34.38;21.60;;;3.10;99.90;;;;;;468089;251;27899;-72
2024/03/08 08:56:13;;;;;;;36.05;21.67;;;3.20;99.90;;;;;;476726;249;27482;-72
2024/03/08 08:58:15;;;;;;;32.53;20.67;;;3.20;99.90;;;;;;468055;253;27584;-74
2024/03/08 09:00:16;;;;;;;34.00;20.65;;;3.20;99.90;;;;;;476987;249;27486;-73
2024/03/08 09:02:20;;;;;;;33.15;21.17;;;3.20;99.90;;;;;;468089;251;27454;-73
2024/03/08 09:04:19;;;;;;;32.88;20.65;;;3.20;99.90;;;;;;476777;249;27507;-72
2024/03/08 09:06:20;;;;;;;34.47;21.98;;;3.20;99.90;;;;;;468084;251;27462;-72
2024/03/08 09:08:21;;;;;;;33.80;21.83;;;3.20;99.90;;;;;;476963;249;28018;-73
2024/03/08 09:10:23;;;;;;;33.85;22.37;;;3.20;99.90;;;;;;468113;251;27973;-72
2024/03/08 09:12:23;;;;;;;31.25;21.37;;;3.30;99.90;;;;;;476936;249;27511;-72
2024/03/08 09:14:26;;;;;;;31.83;21.35;;;3.40;99.90;;;;;;468078;251;27514;-71
2024/03/08 09:16:26;;;;;;;32.60;19.10;;;3.50;99.90;;;;;;476968;249;27483;-72
2024/03/08 09:18:27;;;;;;;35.92;21.12;;;3.50;99.90;;;;;;468048;251;27544;-72
2024/03/08 09:20:29;;;;;;;31.50;20.58;;;3.50;99.90;;;;;;476943;249;27563;-73
2024/03/08 09:22:30;;;;;;;33.63;19.85;;;3.60;99.90;;;;;;468023;251;27956;-74
2024/03/08 09:24:31;;;;;;;34.25;20.92;;;3.60;99.90;;;;;;476986;249;28057;-73
2024/03/08 09:26:33;;;;;;;29.80;19.50;;;3.70;99.90;;;;;;468080;251;27415;-72
2024/03/08 09:28:34;;;;;;;33.92;20.62;;;3.80;99.90;;;;;;476923;249;27543;-71
2024/03/08 09:30:35;;;;;;;32.88;19.85;;;3.90;99.90;;;;;;468085;251;27493;-71
2024/03/08 09:32:36;;;;;;;31.15;18.77;;;4.10;99.90;;;;;;477003;249;27443;-71
2024/03/08 09:34:37;;;;;;;34.53;20.90;;;4.10;99.90;;;;;;468103;251;27454;-71
2024/03/08 09:36:38;;;;;;;29.70;19.62;;;4.20;99.90;;;;;;476988;249;28304;-71
2024/03/08 09:38:40;;;;;;;29.17;19.35;;;4.40;99.90;;;;;;468059;251;27972;-71
2024/03/08 09:40:41;;;;;;;29.63;19.27;;;4.60;99.90;;;;;;477000;249;27497;-72
2024/03/08 09:42:42;;;;;;;30.10;19.10;;;4.60;99.90;;;;;;468140;251;27440;-74
2024/03/08 09:44:43;;;;;;;28.20;18.30;;;4.60;99.90;;;;;;476961;249;27434;-74
2024/03/08 09:46:47;;;;;;;29.40;19.70;;;4.50;99.90;;;;;;468075;251;27422;-74
2024/03/08 09:48:46;;;;;;;28.87;19.60;;;4.50;99.90;;;;;;476787;249;28022;-72
2024/03/08 09:50:48;;;;;;;29.85;19.30;;;4.70;99.90;;;;;;468136;251;27504;-75
2024/03/08 09:52:49;;;;;;;27.90;18.95;;;4.60;99.90;;;;;;476977;249;27489;-74
2024/03/08 09:54:50;;;;;;;30.40;19.70;;;4.70;99.90;;;;;;468113;251;27498;-72
2024/03/08 09:56:51;;;;;;;30.05;18.85;;;4.80;99.90;;;;;;476931;249;27499;-74
2024/03/08 10:00:54;;;;;;;35.58;20.83;;;4.60;99.90;;;;;;463002;254;27484;-72
2024/03/08 10:02:55;;;;;;;32.63;18.87;;;4.70;99.90;;;;;;476974;249;27407;-71
2024/03/08 10:04:57;;;;;;;32.92;20.30;;;4.80;99.90;;;;;;468042;251;27529;-74
2024/03/08 10:06:58;;;;;;;28.67;19.87;;;5.00;99.90;;;;;;476959;249;27497;-73
2024/03/08 10:08:59;;;;;;;33.78;20.60;;;5.00;99.90;;;;;;468055;251;28033;-72
2024/03/08 10:11:00;;;;;;;29.60;20.00;;;4.90;99.90;;;;;;476963;249;27953;-73
2024/03/08 10:13:01;;;;;;;30.12;19.10;;;4.90;99.90;;;;;;468087;251;27422;-74
2024/03/08 10:15:02;;;;;;;28.67;18.58;;;4.70;99.90;;;;;;476958;249;27446;-71
2024/03/08 10:17:05;;;;;;;33.10;20.52;;;4.60;99.90;;;;;;468110;251;27499;-72
2024/03/08 10:19:05;;;;;;;29.90;19.70;;;4.60;99.90;;;;;;476889;249;27415;-74
2024/03/08 10:21:07;;;;;;;29.23;18.98;;;4.50;99.90;;;;;;468066;251;27973;-74
2024/03/08 10:23:09;;;;;;;29.85;18.90;;;4.60;99.90;;;;;;476951;249;27434;-73
2024/03/08 10:25:10;;;;;;;32.05;20.70;;;4.50;99.90;;;;;;468036;254;27550;-72